createdAt,value
2023-01-29T00:00:10.012Z,73.79
2023-01-29T00:03:16.245Z,73.48
2023-01-29T00:06:18.718Z,73.77
2023-01-29T00:09:21.385Z,74.07
2023-01-29T00:12:23.785Z,74.29
2023-01-29T00:15:26.159Z,73.79
2023-01-29T00:18:29.916Z,74.12
2023-01-29T00:21:32.584Z,73.87
2023-01-29T00:24:35.047Z,74.06
2023-01-29T00:27:38.608Z,73.63
2023-01-29T00:30:41.231Z,73.37
2023-01-29T00:33:43.723Z,72.87
2023-01-29T00:36:46.440Z,72.64
2023-01-29T00:39:49.386Z,72.08
2023-01-29T00:43:10.630Z,71.86
2023-01-29T00:46:14.321Z,71.41
2023-01-29T00:49:16.945Z,70.73
2023-01-29T00:52:24.949Z,69.97
2023-01-29T00:55:27.465Z,69.77
2023-01-29T00:58:34.236Z,69.63
2023-01-29T01:01:55.313Z,69.53
2023-01-29T01:04:57.878Z,69.36
2023-01-29T01:08:00.328Z,68.94
2023-01-29T01:11:06.461Z,68.98
2023-01-29T01:14:09.240Z,69.04
2023-01-29T01:17:11.614Z,68.56
2023-01-29T01:20:14.829Z,68.07
2023-01-29T01:23:19.601Z,68.51
2023-01-29T01:26:21.971Z,69.29
2023-01-29T01:29:24.656Z,68.48
2023-01-29T01:32:27.181Z,68.50
2023-01-29T01:35:29.702Z,67.19
2023-01-29T01:38:32.069Z,68.08
2023-01-29T01:41:34.432Z,67.84
2023-01-29T01:45:06.461Z,68.00
2023-01-29T01:48:15.463Z,67.48
2023-01-29T01:51:19.574Z,67.48
2023-01-29T01:54:27.476Z,67.36
2023-01-29T01:57:32.287Z,67.68
2023-01-29T02:00:34.986Z,67.72
2023-01-29T02:04:12.906Z,67.04
2023-01-29T02:07:34.097Z,66.91
2023-01-29T02:10:42.807Z,66.61
2023-01-29T02:13:45.373Z,66.85
2023-01-29T02:16:47.923Z,67.29
2023-01-29T02:20:06.511Z,67.62
2023-01-29T02:23:23.389Z,66.64
2023-01-29T02:26:39.184Z,66.72
2023-01-29T02:30:11.434Z,66.39
2023-01-29T02:33:37.225Z,66.86
2023-01-29T02:36:57.010Z,67.00
2023-01-29T02:40:12.612Z,67.47
2023-01-29T02:43:42.912Z,66.65
2023-01-29T02:47:01.216Z,66.97
2023-01-29T02:50:26.610Z,67.71
2023-01-29T02:53:41.260Z,67.35
2023-01-29T02:56:53.769Z,67.38
2023-01-29T03:00:02.591Z,67.83
2023-01-29T03:03:12.638Z,67.86
2023-01-29T03:06:32.301Z,68.34
2023-01-29T03:09:41.454Z,68.55
2023-01-29T03:12:47.815Z,67.88
2023-01-29T03:16:01.453Z,68.01
2023-01-29T03:19:50.940Z,68.00
2023-01-29T03:23:03.896Z,67.87
2023-01-29T03:26:25.329Z,67.62
2023-01-29T03:29:50.592Z,67.32
2023-01-29T03:32:55.596Z,68.32
2023-01-29T03:36:08.892Z,67.73
2023-01-29T03:39:12.940Z,67.81
2023-01-29T03:42:30.331Z,67.83
2023-01-29T03:45:43.305Z,67.56
2023-01-29T03:49:01.173Z,67.71
2023-01-29T03:52:19.994Z,67.59
2023-01-29T03:55:43.482Z,67.67
2023-01-29T03:59:19.487Z,66.90
2023-01-29T04:02:46.720Z,67.49
2023-01-29T04:05:58.650Z,67.04
2023-01-29T04:09:16.700Z,66.88
2023-01-29T04:12:24.609Z,65.53
2023-01-29T04:15:30.077Z,65.81
2023-01-29T04:18:33.551Z,66.62
2023-01-29T04:21:49.432Z,66.63
2023-01-29T04:24:52.010Z,65.39
2023-01-29T04:28:06.143Z,65.64
2023-01-29T04:31:12.655Z,65.47
2023-01-29T04:34:28.797Z,66.00
2023-01-29T04:37:56.604Z,66.09
2023-01-29T04:41:11.563Z,66.40
2023-01-29T04:44:23.879Z,66.03
2023-01-29T04:47:45.379Z,66.45
2023-01-29T04:51:12.876Z,65.92
2023-01-29T04:54:30.193Z,65.99
2023-01-29T04:57:53.265Z,66.47
2023-01-29T05:00:58.825Z,64.80
2023-01-29T05:04:11.020Z,66.09
2023-01-29T05:07:15.440Z,65.99
2023-01-29T05:10:21.312Z,66.45
2023-01-29T05:13:25.603Z,66.20
2023-01-29T05:16:42.145Z,66.50
2023-01-29T05:19:45.851Z,66.38
2023-01-29T05:22:49.225Z,66.38
2023-01-29T05:25:52.108Z,67.30
2023-01-29T05:28:56.173Z,64.98
2023-01-29T05:31:58.907Z,66.25
2023-01-29T05:35:01.490Z,66.48
2023-01-29T05:38:04.106Z,66.70
2023-01-29T05:41:14.068Z,65.56
2023-01-29T05:44:16.459Z,66.16
2023-01-29T05:47:20.436Z,65.57
2023-01-29T05:50:23.820Z,66.55
2023-01-29T05:53:26.127Z,66.13
2023-01-29T05:56:28.502Z,66.93
2023-01-29T05:59:31.316Z,66.33
2023-01-29T06:02:33.804Z,66.73
2023-01-29T06:05:39.736Z,67.31
2023-01-29T06:08:42.296Z,67.38
2023-01-29T06:11:44.823Z,67.32
2023-01-29T06:14:47.189Z,67.04
2023-01-29T06:17:49.594Z,67.07
2023-01-29T06:20:52.431Z,67.64
2023-01-29T06:23:55.218Z,67.43
2023-01-29T06:26:57.536Z,67.66
2023-01-29T06:29:59.849Z,67.60
2023-01-29T06:33:02.859Z,67.00
2023-01-29T06:36:05.869Z,67.40
2023-01-29T06:39:08.262Z,67.91
2023-01-29T06:42:11.227Z,67.62
2023-01-29T06:45:13.672Z,67.16
2023-01-29T06:48:16.464Z,67.96
2023-01-29T06:51:19.021Z,67.31
2023-01-29T06:54:21.408Z,65.46
2023-01-29T06:57:23.880Z,66.31
2023-01-29T07:00:26.269Z,66.33
2023-01-29T07:03:28.663Z,66.54
2023-01-29T07:06:31.611Z,66.81
2023-01-29T07:09:34.040Z,65.29
2023-01-29T07:12:36.404Z,65.53
2023-01-29T07:15:38.762Z,66.82
2023-01-29T07:18:41.119Z,66.04
2023-01-29T07:21:43.644Z,65.47
2023-01-29T07:24:46.104Z,64.78
2023-01-29T07:27:48.948Z,64.82
2023-01-29T07:30:56.303Z,64.52
2023-01-29T07:33:58.717Z,64.16
2023-01-29T07:37:01.056Z,64.12
2023-01-29T07:40:05.357Z,65.34
2023-01-29T07:43:10.535Z,64.70
2023-01-29T07:46:14.128Z,64.53
2023-01-29T07:49:16.928Z,65.07
2023-01-29T07:52:21.945Z,64.36
2023-01-29T07:55:25.241Z,64.08
2023-01-29T07:58:27.694Z,64.30
2023-01-29T08:01:30.173Z,64.22
2023-01-29T08:04:32.623Z,63.71
2023-01-29T08:07:35.172Z,63.38
2023-01-29T08:10:39.414Z,63.03
2023-01-29T08:13:41.924Z,62.94
2023-01-29T08:16:44.336Z,62.89
2023-01-29T08:19:46.748Z,62.44
2023-01-29T08:22:49.479Z,62.66
2023-01-29T08:25:52.146Z,63.35
2023-01-29T08:28:54.695Z,62.86
2023-01-29T08:31:57.424Z,62.81
2023-01-29T08:34:59.857Z,62.79
2023-01-29T08:38:03.980Z,62.27
2023-01-29T08:41:07.381Z,61.38
2023-01-29T08:44:10.257Z,61.71
2023-01-29T08:47:12.586Z,63.06
2023-01-29T08:50:16.720Z,62.40
2023-01-29T08:53:24.362Z,61.41
2023-01-29T08:56:26.736Z,61.63
2023-01-29T08:59:29.144Z,61.99
2023-01-29T09:02:31.589Z,62.24
2023-01-29T09:05:38.807Z,62.57
2023-01-29T09:08:41.504Z,62.29
2023-01-29T09:11:44.606Z,62.76
2023-01-29T09:14:46.995Z,61.39
2023-01-29T09:17:49.558Z,62.65
2023-01-29T09:20:54.198Z,60.93
2023-01-29T09:23:56.602Z,60.74
2023-01-29T09:27:00.947Z,62.18
2023-01-29T09:30:05.405Z,61.55
2023-01-29T09:33:08.363Z,59.92
2023-01-29T09:36:10.761Z,59.89
2023-01-29T09:39:13.168Z,59.66
2023-01-29T09:42:41.939Z,60.12
2023-01-29T09:46:08.074Z,58.51
2023-01-29T09:49:41.760Z,59.49
2023-01-29T09:52:58.902Z,58.75
2023-01-29T09:56:06.066Z,58.77
2023-01-29T09:59:12.434Z,58.96
2023-01-29T10:02:55.941Z,59.25
2023-01-29T10:06:35.759Z,59.80
2023-01-29T10:10:22.526Z,59.25
2023-01-29T10:13:47.864Z,59.31
2023-01-29T10:17:15.917Z,59.01
2023-01-29T10:20:39.716Z,59.12
2023-01-29T10:23:50.287Z,59.61
2023-01-29T10:26:52.963Z,59.05
2023-01-29T10:29:56.451Z,60.55
2023-01-29T10:33:02.661Z,59.57
2023-01-29T10:36:10.964Z,57.55
2023-01-29T10:39:24.481Z,58.31
2023-01-29T10:42:34.304Z,57.30
2023-01-29T10:46:08.951Z,58.10
2023-01-29T10:49:39.038Z,59.10
2023-01-29T10:52:59.457Z,58.93
2023-01-29T10:56:14.072Z,59.32
2023-01-29T10:59:44.649Z,58.59
2023-01-29T11:02:50.399Z,59.66
2023-01-29T11:06:17.704Z,58.34
2023-01-29T11:09:20.229Z,58.63
2023-01-29T11:12:27.316Z,57.61
2023-01-29T11:15:32.482Z,59.08
2023-01-29T11:18:52.945Z,58.15
2023-01-29T11:22:01.179Z,59.17
2023-01-29T11:25:22.525Z,57.15
2023-01-29T11:28:43.217Z,59.06
2023-01-29T11:31:45.766Z,58.25
2023-01-29T11:35:09.945Z,59.12
2023-01-29T11:38:27.017Z,59.10
2023-01-29T11:41:29.537Z,58.44
2023-01-29T11:44:41.602Z,59.52
2023-01-29T11:47:49.244Z,59.94
2023-01-29T11:50:55.652Z,57.87
2023-01-29T11:54:01.943Z,58.25
2023-01-29T11:57:04.942Z,57.41
2023-01-29T12:00:21.738Z,57.48
2023-01-29T12:03:43.811Z,58.92
2023-01-29T12:06:51.963Z,58.33
2023-01-29T12:09:57.937Z,58.50
2023-01-29T12:13:27.693Z,58.86
2023-01-29T12:16:38.964Z,57.23
2023-01-29T12:19:46.728Z,57.45
2023-01-29T12:23:01.256Z,55.56
2023-01-29T12:26:11.192Z,58.65
2023-01-29T12:29:13.972Z,56.83
2023-01-29T12:32:28.960Z,57.33
2023-01-29T12:35:35.762Z,56.79
2023-01-29T12:38:38.212Z,57.89
2023-01-29T12:41:50.806Z,55.88
2023-01-29T12:45:08.712Z,55.77
2023-01-29T12:48:17.493Z,54.96
2023-01-29T12:51:31.171Z,56.27
2023-01-29T12:54:50.064Z,57.75
2023-01-29T12:57:57.692Z,56.96
2023-01-29T13:01:16.827Z,58.01
2023-01-29T13:04:30.963Z,55.68
2023-01-29T13:07:41.222Z,57.60
2023-01-29T13:10:49.121Z,55.32
2023-01-29T13:13:56.422Z,55.32
2023-01-29T13:17:09.915Z,57.03
2023-01-29T13:20:24.379Z,56.61
2023-01-29T13:23:42.049Z,56.52
2023-01-29T13:26:46.459Z,57.86
2023-01-29T13:29:49.160Z,58.54
2023-01-29T13:32:54.396Z,56.91
2023-01-29T13:36:00.139Z,56.79
2023-01-29T13:39:07.459Z,57.23
2023-01-29T13:42:37.801Z,58.27
2023-01-29T13:45:45.049Z,58.56
2023-01-29T13:48:50.954Z,58.66
2023-01-29T13:51:54.267Z,59.51
2023-01-29T13:55:21.396Z,58.62
2023-01-29T13:58:32.581Z,59.83
2023-01-29T14:01:46.859Z,59.65
2023-01-29T14:04:49.701Z,57.93
2023-01-29T14:07:52.142Z,57.26
2023-01-29T14:11:21.573Z,56.41
2023-01-29T14:14:49.104Z,56.93
2023-01-29T14:18:18.444Z,59.24
2023-01-29T14:21:28.460Z,57.38
2023-01-29T14:24:31.409Z,60.05
2023-01-29T14:27:36.656Z,58.64
2023-01-29T14:30:41.123Z,58.95
2023-01-29T14:33:45.317Z,57.82
2023-01-29T14:36:55.254Z,59.76
2023-01-29T14:40:08.018Z,59.67
2023-01-29T14:43:20.056Z,60.46
2023-01-29T14:46:43.458Z,63.22
2023-01-29T14:50:26.976Z,66.09
2023-01-29T14:53:48.464Z,67.76
2023-01-29T14:57:00.061Z,67.13
2023-01-29T15:00:14.981Z,67.19
2023-01-29T15:03:27.514Z,68.08
2023-01-29T15:06:53.098Z,67.78
2023-01-29T15:10:21.501Z,67.73
2023-01-29T15:13:35.744Z,67.87
2023-01-29T15:16:59.310Z,68.52
2023-01-29T15:20:01.969Z,69.36
2023-01-29T15:23:23.659Z,69.21
2023-01-29T15:26:27.179Z,69.27
2023-01-29T15:29:30.301Z,68.83
2023-01-29T15:32:36.657Z,70.55
2023-01-29T15:35:41.353Z,70.97
2023-01-29T15:38:46.774Z,70.45
2023-01-29T15:41:51.841Z,69.95
2023-01-29T15:44:57.494Z,68.31
2023-01-29T15:48:12.260Z,68.71
2023-01-29T15:51:18.541Z,68.65
2023-01-29T15:54:21.161Z,70.37
2023-01-29T15:57:28.322Z,70.99
2023-01-29T16:00:31.486Z,70.95
2023-01-29T16:03:36.041Z,70.82
2023-01-29T16:06:41.007Z,70.53
2023-01-29T16:09:44.015Z,70.84
2023-01-29T16:12:51.446Z,68.66
2023-01-29T16:15:55.714Z,70.29
2023-01-29T16:19:00.806Z,68.05
2023-01-29T16:22:06.833Z,70.00
2023-01-29T16:25:14.740Z,70.43
2023-01-29T16:28:18.096Z,71.72
2023-01-29T16:31:25.760Z,72.28
2023-01-29T16:34:35.499Z,71.96
2023-01-29T16:37:38.947Z,72.42
2023-01-29T16:41:13.124Z,72.43
2023-01-29T16:44:15.840Z,72.77
2023-01-29T16:47:37.570Z,72.24
2023-01-29T16:50:53.887Z,70.19
2023-01-29T16:54:02.253Z,70.24
2023-01-29T16:57:04.949Z,70.21
2023-01-29T17:00:18.629Z,69.57
2023-01-29T17:03:21.665Z,70.69
2023-01-29T17:06:26.597Z,69.37
2023-01-29T17:09:35.213Z,69.96
2023-01-29T17:12:39.110Z,69.08
2023-01-29T17:15:43.089Z,69.44
2023-01-29T17:18:45.659Z,70.12
2023-01-29T17:21:48.261Z,71.02
2023-01-29T17:24:51.582Z,71.71
2023-01-29T17:27:54.268Z,72.13
2023-01-29T17:31:10.810Z,72.25
2023-01-29T17:34:15.349Z,71.96
2023-01-29T17:37:18.079Z,73.02
2023-01-29T17:40:55.842Z,72.75
2023-01-29T17:43:58.639Z,72.19
2023-01-29T17:47:01.220Z,72.11
2023-01-29T17:50:21.355Z,72.22
2023-01-29T17:53:26.551Z,73.12
2023-01-29T17:56:33.216Z,71.93
2023-01-29T17:59:36.044Z,72.51
2023-01-29T18:02:39.816Z,72.36
2023-01-29T18:05:48.205Z,72.80
2023-01-29T18:08:50.826Z,72.39
2023-01-29T18:11:54.062Z,73.50
2023-01-29T18:14:56.792Z,73.50
2023-01-29T18:17:59.716Z,72.98
2023-01-29T18:21:02.368Z,73.51
2023-01-29T18:24:05.216Z,72.80
2023-01-29T18:27:08.793Z,72.66
2023-01-29T18:30:12.747Z,72.60
2023-01-29T18:33:16.901Z,72.36
2023-01-29T18:36:20.078Z,72.76
2023-01-29T18:39:22.720Z,73.05
2023-01-29T18:42:25.517Z,72.57
2023-01-29T18:45:28.746Z,72.56
2023-01-29T18:48:31.558Z,72.81
2023-01-29T18:51:34.292Z,73.29
2023-01-29T18:54:37.055Z,73.21
2023-01-29T18:58:26.541Z,72.28
2023-01-29T19:01:09.106Z,73.35
2023-01-29T19:04:12.282Z,73.12
2023-01-29T19:07:15.576Z,72.78
2023-01-29T19:10:18.729Z,73.34
2023-01-29T19:13:21.541Z,71.77
2023-01-29T19:16:24.244Z,72.45
2023-01-29T19:19:28.059Z,72.46
2023-01-29T19:22:32.232Z,72.68
2023-01-29T19:25:43.626Z,72.88
2023-01-29T19:28:46.723Z,73.02
2023-01-29T19:31:49.469Z,72.90
2023-01-29T19:34:52.547Z,73.64
2023-01-29T19:37:55.189Z,72.47
2023-01-29T19:40:59.836Z,72.93
2023-01-29T19:44:02.253Z,73.98
2023-01-29T19:47:05.638Z,73.13
2023-01-29T19:50:10.019Z,72.89
2023-01-29T19:53:12.735Z,73.07
2023-01-29T19:56:17.601Z,73.72
2023-01-29T19:59:20.892Z,73.68
2023-01-29T20:02:25.117Z,74.57
2023-01-29T20:05:27.524Z,74.53
2023-01-29T20:08:31.130Z,74.11
2023-01-29T20:11:34.084Z,74.23
2023-01-29T20:14:36.449Z,73.80
2023-01-29T20:17:39.268Z,73.48
2023-01-29T20:20:46.312Z,73.78
2023-01-29T20:23:50.429Z,73.79
2023-01-29T20:26:53.023Z,74.12
2023-01-29T20:29:55.827Z,73.18
2023-01-29T20:32:58.661Z,74.29
2023-01-29T20:36:03.314Z,74.50
2023-01-29T20:39:05.637Z,74.36
2023-01-29T20:42:08.313Z,73.88
2023-01-29T20:45:10.888Z,73.63
2023-01-29T20:48:13.564Z,73.19
2023-01-29T20:51:17.751Z,73.89
2023-01-29T20:54:20.488Z,73.85
2023-01-29T20:57:23.204Z,73.79
2023-01-29T21:00:25.530Z,73.51
2023-01-29T21:03:28.273Z,74.10
2023-01-29T21:06:31.018Z,74.76
2023-01-29T21:09:33.510Z,74.80
2023-01-29T21:12:36.156Z,74.20
2023-01-29T21:15:38.890Z,74.72
2023-01-29T21:18:41.086Z,74.77
2023-01-29T21:21:43.432Z,75.16
2023-01-29T21:24:46.187Z,75.44
2023-01-29T21:27:49.261Z,75.63
2023-01-29T21:31:02.652Z,76.07
2023-01-29T21:34:05.717Z,75.66
2023-01-29T21:37:09.672Z,76.32
2023-01-29T21:40:13.627Z,76.10
2023-01-29T21:43:16.291Z,76.63
2023-01-29T21:46:18.660Z,76.27
2023-01-29T21:49:21.596Z,74.58
2023-01-29T21:52:23.967Z,75.67
2023-01-29T21:55:26.376Z,76.17
2023-01-29T21:58:29.874Z,76.66
2023-01-29T22:01:37.916Z,77.00
2023-01-29T22:04:42.383Z,76.69
2023-01-29T22:07:44.850Z,77.20
2023-01-29T22:10:47.410Z,77.16
2023-01-29T22:13:50.024Z,77.55
2023-01-29T22:16:52.533Z,77.27
2023-01-29T22:19:55.045Z,77.26
2023-01-29T22:23:00.733Z,75.64
2023-01-29T22:26:07.588Z,78.12
2023-01-29T22:29:13.824Z,79.17
2023-01-29T22:32:16.479Z,78.54
2023-01-29T22:35:18.937Z,78.58
2023-01-29T22:38:22.703Z,79.53
2023-01-29T22:41:25.056Z,78.64
2023-01-29T22:44:27.401Z,78.24
2023-01-29T22:47:32.818Z,79.37
2023-01-29T22:50:35.180Z,79.52
2023-01-29T22:53:44.658Z,79.44
2023-01-29T22:56:47.048Z,78.98
2023-01-29T22:59:49.472Z,78.15
2023-01-29T23:02:52.156Z,77.77
2023-01-29T23:05:54.494Z,78.28
2023-01-29T23:08:57.138Z,78.88
2023-01-29T23:11:59.531Z,79.21
2023-01-29T23:15:01.982Z,79.15
2023-01-29T23:18:05.742Z,79.84
2023-01-29T23:21:08.864Z,78.91
2023-01-29T23:24:11.511Z,78.31
2023-01-29T23:27:16.510Z,77.91
2023-01-29T23:30:19.303Z,78.94
2023-01-29T23:33:22.145Z,79.86
2023-01-29T23:36:24.671Z,79.75
2023-01-29T23:39:27.047Z,79.06
2023-01-29T23:42:29.443Z,79.19
2023-01-29T23:45:31.812Z,79.29
2023-01-29T23:48:34.312Z,78.98
2023-01-29T23:51:36.717Z,79.11
2023-01-29T23:54:39.043Z,78.66
2023-01-29T23:57:41.467Z,80.39
